sensor_id;sensor_type;location;lat;lon;timestamp;P1;durP1;ratioP1;P2;durP2;ratioP2
24517;SDS011;12678;51.336;12.406;2024-01-16T00:01:06;3.92;;;1.67;;
24517;SDS011;12678;51.336;12.406;2024-01-16T00:03:32;5.80;;;1.80;;
24517;SDS011;12678;51.336;12.406;2024-01-16T00:06:00;8.02;;;1.90;;
24517;SDS011;12678;51.336;12.406;2024-01-16T00:08:26;12.52;;;2.67;;
24517;SDS011;12678;51.336;12.406;2024-01-16T00:10:52;8.73;;;2.00;;
24517;SDS011;12678;51.336;12.406;2024-01-16T00:13:17;2.95;;;2.00;;
24517;SDS011;12678;51.336;12.406;2024-01-16T00:15:43;5.10;;;2.28;;
24517;SDS011;12678;51.336;12.406;2024-01-16T00:18:10;3.95;;;1.90;;
24517;SDS011;12678;51.336;12.406;2024-01-16T00:20:35;8.95;;;2.10;;
24517;SDS011;12678;51.336;12.406;2024-01-16T00:23:01;6.30;;;2.22;;
24517;SDS011;12678;51.336;12.406;2024-01-16T00:25:26;8.20;;;1.70;;
24517;SDS011;12678;51.336;12.406;2024-01-16T00:27:52;12.20;;;2.42;;
24517;SDS011;12678;51.336;12.406;2024-01-16T00:30:19;7.35;;;2.38;;
24517;SDS011;12678;51.336;12.406;2024-01-16T00:32:44;7.35;;;2.03;;
24517;SDS011;12678;51.336;12.406;2024-01-16T00:35:10;7.75;;;2.13;;
24517;SDS011;12678;51.336;12.406;2024-01-16T00:37:36;5.07;;;2.63;;
24517;SDS011;12678;51.336;12.406;2024-01-16T00:40:02;8.15;;;2.05;;
24517;SDS011;12678;51.336;12.406;2024-01-16T00:42:29;4.00;;;2.00;;
24517;SDS011;12678;51.336;12.406;2024-01-16T00:44:58;3.10;;;1.98;;
24517;SDS011;12678;51.336;12.406;2024-01-16T00:47:23;5.30;;;2.35;;
24517;SDS011;12678;51.336;12.406;2024-01-16T00:49:49;4.72;;;2.40;;
24517;SDS011;12678;51.336;12.406;2024-01-16T00:52:15;5.00;;;1.75;;
24517;SDS011;12678;51.336;12.406;2024-01-16T00:54:40;9.68;;;2.97;;
24517;SDS011;12678;51.336;12.406;2024-01-16T00:57:06;11.90;;;2.58;;
24517;SDS011;12678;51.336;12.406;2024-01-16T00:59:32;6.10;;;2.25;;
24517;SDS011;12678;51.336;12.406;2024-01-16T01:01:58;4.40;;;2.58;;
24517;SDS011;12678;51.336;12.406;2024-01-16T01:04:23;4.22;;;2.45;;
24517;SDS011;12678;51.336;12.406;2024-01-16T01:06:49;6.40;;;2.40;;
24517;SDS011;12678;51.336;12.406;2024-01-16T01:09:15;8.55;;;3.20;;
24517;SDS011;12678;51.336;12.406;2024-01-16T01:11:42;6.15;;;2.50;;
24517;SDS011;12678;51.336;12.406;2024-01-16T01:14:07;9.13;;;2.42;;
24517;SDS011;12678;51.336;12.406;2024-01-16T01:16:33;3.35;;;2.35;;
24517;SDS011;12678;51.336;12.406;2024-01-16T01:18:59;4.65;;;2.53;;
24517;SDS011;12678;51.336;12.406;2024-01-16T01:21:25;5.28;;;2.10;;
24517;SDS011;12678;51.336;12.406;2024-01-16T01:23:50;8.45;;;2.60;;
24517;SDS011;12678;51.336;12.406;2024-01-16T01:26:16;4.25;;;2.15;;
24517;SDS011;12678;51.336;12.406;2024-01-16T01:28:44;21.45;;;5.95;;
24517;SDS011;12678;51.336;12.406;2024-01-16T01:31:12;10.18;;;2.40;;
24517;SDS011;12678;51.336;12.406;2024-01-16T01:33:41;5.97;;;2.58;;
24517;SDS011;12678;51.336;12.406;2024-01-16T01:36:07;3.45;;;1.77;;
24517;SDS011;12678;51.336;12.406;2024-01-16T01:38:33;2.90;;;1.80;;
24517;SDS011;12678;51.336;12.406;2024-01-16T01:40:58;5.60;;;1.67;;
24517;SDS011;12678;51.336;12.406;2024-01-16T01:43:24;9.73;;;1.70;;
24517;SDS011;12678;51.336;12.406;2024-01-16T01:46:35;7.70;;;1.88;;
24517;SDS011;12678;51.336;12.406;2024-01-16T01:48:43;6.95;;;1.55;;
24517;SDS011;12678;51.336;12.406;2024-01-16T01:51:10;4.38;;;1.50;;
24517;SDS011;12678;51.336;12.406;2024-01-16T01:53:38;1.77;;;1.38;;
24517;SDS011;12678;51.336;12.406;2024-01-16T01:56:05;2.10;;;1.55;;
24517;SDS011;12678;51.336;12.406;2024-01-16T01:58:33;4.20;;;1.20;;
24517;SDS011;12678;51.336;12.406;2024-01-16T02:01:01;6.55;;;1.38;;
24517;SDS011;12678;51.336;12.406;2024-01-16T02:03:27;2.40;;;1.65;;
24517;SDS011;12678;51.336;12.406;2024-01-16T02:05:56;3.85;;;1.52;;
24517;SDS011;12678;51.336;12.406;2024-01-16T02:08:22;2.92;;;1.40;;
24517;SDS011;12678;51.336;12.406;2024-01-16T02:10:47;1.58;;;1.13;;
24517;SDS011;12678;51.336;12.406;2024-01-16T02:13:14;3.53;;;1.45;;
24517;SDS011;12678;51.336;12.406;2024-01-16T02:15:43;4.05;;;1.38;;
24517;SDS011;12678;51.336;12.406;2024-01-16T02:18:09;1.60;;;1.20;;
24517;SDS011;12678;51.336;12.406;2024-01-16T02:20:34;1.40;;;1.30;;
24517;SDS011;12678;51.336;12.406;2024-01-16T02:23:01;5.78;;;1.92;;
24517;SDS011;12678;51.336;12.406;2024-01-16T02:25:29;2.92;;;1.77;;
24517;SDS011;12678;51.336;12.406;2024-01-16T02:27:55;2.65;;;1.40;;
24517;SDS011;12678;51.336;12.406;2024-01-16T02:30:20;11.60;;;2.13;;
24517;SDS011;12678;51.336;12.406;2024-01-16T02:32:46;3.45;;;2.30;;
24517;SDS011;12678;51.336;12.406;2024-01-16T02:35:11;4.78;;;1.33;;
24517;SDS011;12678;51.336;12.406;2024-01-16T02:37:37;1.75;;;1.40;;
24517;SDS011;12678;51.336;12.406;2024-01-16T02:40:02;9.32;;;1.67;;
24517;SDS011;12678;51.336;12.406;2024-01-16T02:42:34;1.45;;;1.35;;
24517;SDS011;12678;51.336;12.406;2024-01-16T02:44:59;3.08;;;1.65;;
24517;SDS011;12678;51.336;12.406;2024-01-16T02:47:25;2.60;;;1.13;;
24517;SDS011;12678;51.336;12.406;2024-01-16T02:49:50;1.52;;;1.05;;
24517;SDS011;12678;51.336;12.406;2024-01-16T02:52:16;4.15;;;1.38;;
24517;SDS011;12678;51.336;12.406;2024-01-16T02:54:41;2.58;;;2.33;;
24517;SDS011;12678;51.336;12.406;2024-01-16T02:57:07;1.20;;;1.10;;
24517;SDS011;12678;51.336;12.406;2024-01-16T02:59:32;2.53;;;1.10;;
24517;SDS011;12678;51.336;12.406;2024-01-16T03:01:58;4.78;;;1.20;;
24517;SDS011;12678;51.336;12.406;2024-01-16T03:04:24;1.70;;;1.10;;
24517;SDS011;12678;51.336;12.406;2024-01-16T03:06:49;5.05;;;1.27;;
24517;SDS011;12678;51.336;12.406;2024-01-16T03:09:15;5.72;;;1.70;;
24517;SDS011;12678;51.336;12.406;2024-01-16T03:11:41;3.70;;;1.20;;
24517;SDS011;12678;51.336;12.406;2024-01-16T03:14:06;2.45;;;1.20;;
24517;SDS011;12678;51.336;12.406;2024-01-16T03:16:32;3.58;;;1.00;;
24517;SDS011;12678;51.336;12.406;2024-01-16T03:18:58;2.58;;;1.35;;
24517;SDS011;12678;51.336;12.406;2024-01-16T03:21:23;3.80;;;1.48;;
24517;SDS011;12678;51.336;12.406;2024-01-16T03:23:49;2.20;;;1.30;;
24517;SDS011;12678;51.336;12.406;2024-01-16T03:26:15;2.17;;;1.27;;
24517;SDS011;12678;51.336;12.406;2024-01-16T03:28:40;1.38;;;1.27;;
24517;SDS011;12678;51.336;12.406;2024-01-16T03:31:06;6.22;;;1.98;;
24517;SDS011;12678;51.336;12.406;2024-01-16T03:33:32;3.80;;;1.10;;
24517;SDS011;12678;51.336;12.406;2024-01-16T03:35:59;1.85;;;1.30;;
24517;SDS011;12678;51.336;12.406;2024-01-16T03:38:25;1.20;;;1.10;;
24517;SDS011;12678;51.336;12.406;2024-01-16T03:40:51;2.47;;;1.05;;
24517;SDS011;12678;51.336;12.406;2024-01-16T03:43:17;2.28;;;1.55;;
24517;SDS011;12678;51.336;12.406;2024-01-16T03:45:42;5.43;;;1.83;;
24517;SDS011;12678;51.336;12.406;2024-01-16T03:48:08;1.55;;;1.45;;
24517;SDS011;12678;51.336;12.406;2024-01-16T03:50:34;4.65;;;1.52;;
24517;SDS011;12678;51.336;12.406;2024-01-16T03:53:01;8.52;;;1.42;;
24517;SDS011;12678;51.336;12.406;2024-01-16T03:55:28;7.90;;;1.50;;
24517;SDS011;12678;51.336;12.406;2024-01-16T03:57:55;2.00;;;1.45;;
24517;SDS011;12678;51.336;12.406;2024-01-16T04:00:21;11.90;;;2.42;;
24517;SDS011;12678;51.336;12.406;2024-01-16T04:02:46;4.13;;;1.30;;
24517;SDS011;12678;51.336;12.406;2024-01-16T04:05:12;6.13;;;1.65;;
24517;SDS011;12678;51.336;12.406;2024-01-16T04:07:37;3.53;;;1.70;;
24517;SDS011;12678;51.336;12.406;2024-01-16T04:10:05;3.15;;;1.30;;
24517;SDS011;12678;51.336;12.406;2024-01-16T04:12:31;7.00;;;1.50;;
24517;SDS011;12678;51.336;12.406;2024-01-16T04:14:57;3.08;;;1.73;;
24517;SDS011;12678;51.336;12.406;2024-01-16T04:17:22;2.53;;;1.38;;
24517;SDS011;12678;51.336;12.406;2024-01-16T04:19:48;5.00;;;1.67;;
24517;SDS011;12678;51.336;12.406;2024-01-16T04:22:13;3.42;;;1.77;;
24517;SDS011;12678;51.336;12.406;2024-01-16T04:24:39;6.68;;;1.60;;
24517;SDS011;12678;51.336;12.406;2024-01-16T04:27:04;1.75;;;1.55;;
24517;SDS011;12678;51.336;12.406;2024-01-16T04:29:30;6.32;;;2.20;;
24517;SDS011;12678;51.336;12.406;2024-01-16T04:31:56;3.47;;;1.80;;
24517;SDS011;12678;51.336;12.406;2024-01-16T04:34:22;3.58;;;2.42;;
24517;SDS011;12678;51.336;12.406;2024-01-16T04:36:48;14.23;;;5.15;;
24517;SDS011;12678;51.336;12.406;2024-01-16T04:39:13;3.13;;;2.13;;
24517;SDS011;12678;51.336;12.406;2024-01-16T04:41:39;4.60;;;1.92;;
24517;SDS011;12678;51.336;12.406;2024-01-16T04:44:04;7.10;;;2.55;;
24517;SDS011;12678;51.336;12.406;2024-01-16T04:46:30;7.28;;;3.63;;
24517;SDS011;12678;51.336;12.406;2024-01-16T04:48:56;8.40;;;2.50;;
24517;SDS011;12678;51.336;12.406;2024-01-16T04:51:21;3.67;;;1.70;;
24517;SDS011;12678;51.336;12.406;2024-01-16T04:53:47;5.57;;;1.95;;
24517;SDS011;12678;51.336;12.406;2024-01-16T04:56:12;7.35;;;2.10;;
24517;SDS011;12678;51.336;12.406;2024-01-16T04:58:38;4.18;;;2.03;;
24517;SDS011;12678;51.336;12.406;2024-01-16T05:01:03;4.03;;;2.60;;
24517;SDS011;12678;51.336;12.406;2024-01-16T05:03:29;10.50;;;2.47;;
24517;SDS011;12678;51.336;12.406;2024-01-16T05:05:55;8.20;;;2.30;;
24517;SDS011;12678;51.336;12.406;2024-01-16T05:08:21;6.78;;;2.58;;
24517;SDS011;12678;51.336;12.406;2024-01-16T05:10:47;5.75;;;2.30;;
24517;SDS011;12678;51.336;12.406;2024-01-16T05:13:13;4.70;;;2.25;;
24517;SDS011;12678;51.336;12.406;2024-01-16T05:15:40;6.68;;;2.70;;
24517;SDS011;12678;51.336;12.406;2024-01-16T05:18:05;3.22;;;2.28;;
24517;SDS011;12678;51.336;12.406;2024-01-16T05:20:31;6.47;;;3.38;;
24517;SDS011;12678;51.336;12.406;2024-01-16T05:22:56;6.05;;;2.72;;
24517;SDS011;12678;51.336;12.406;2024-01-16T05:25:22;4.57;;;2.58;;
24517;SDS011;12678;51.336;12.406;2024-01-16T05:27:48;7.68;;;3.05;;
24517;SDS011;12678;51.336;12.406;2024-01-16T05:30:14;7.93;;;2.85;;
24517;SDS011;12678;51.336;12.406;2024-01-16T05:32:40;5.90;;;3.30;;
24517;SDS011;12678;51.336;12.406;2024-01-16T05:35:06;7.75;;;2.83;;
24517;SDS011;12678;51.336;12.406;2024-01-16T05:37:32;4.35;;;3.03;;
24517;SDS011;12678;51.336;12.406;2024-01-16T05:39:58;4.55;;;2.92;;
24517;SDS011;12678;51.336;12.406;2024-01-16T05:42:24;9.05;;;3.10;;
24517;SDS011;12678;51.336;12.406;2024-01-16T05:44:49;14.93;;;2.97;;
24517;SDS011;12678;51.336;12.406;2024-01-16T05:47:15;10.63;;;3.10;;
24517;SDS011;12678;51.336;12.406;2024-01-16T05:49:40;3.70;;;2.65;;
24517;SDS011;12678;51.336;12.406;2024-01-16T05:52:07;5.45;;;2.83;;
24517;SDS011;12678;51.336;12.406;2024-01-16T05:54:33;8.75;;;2.97;;
24517;SDS011;12678;51.336;12.406;2024-01-16T05:56:59;7.53;;;2.90;;
24517;SDS011;12678;51.336;12.406;2024-01-16T05:59:24;3.83;;;2.10;;
24517;SDS011;12678;51.336;12.406;2024-01-16T06:01:50;5.78;;;2.63;;
24517;SDS011;12678;51.336;12.406;2024-01-16T06:04:16;4.55;;;2.10;;
24517;SDS011;12678;51.336;12.406;2024-01-16T06:06:41;5.78;;;2.22;;
24517;SDS011;12678;51.336;12.406;2024-01-16T06:09:11;8.15;;;2.92;;
24517;SDS011;12678;51.336;12.406;2024-01-16T06:11:39;4.53;;;2.20;;
24517;SDS011;12678;51.336;12.406;2024-01-16T06:14:08;9.50;;;2.63;;
24517;SDS011;12678;51.336;12.406;2024-01-16T06:16:34;4.63;;;2.03;;
24517;SDS011;12678;51.336;12.406;2024-01-16T06:19:00;7.30;;;2.00;;
24517;SDS011;12678;51.336;12.406;2024-01-16T06:21:26;9.98;;;2.08;;
24517;SDS011;12678;51.336;12.406;2024-01-16T06:23:52;4.70;;;2.20;;
24517;SDS011;12678;51.336;12.406;2024-01-16T06:26:17;4.10;;;2.42;;
24517;SDS011;12678;51.336;12.406;2024-01-16T06:28:43;5.70;;;2.92;;
24517;SDS011;12678;51.336;12.406;2024-01-16T06:31:09;6.50;;;1.95;;
24517;SDS011;12678;51.336;12.406;2024-01-16T06:33:35;4.85;;;2.63;;
24517;SDS011;12678;51.336;12.406;2024-01-16T06:36:02;6.85;;;2.33;;
24517;SDS011;12678;51.336;12.406;2024-01-16T06:38:31;3.42;;;2.20;;
24517;SDS011;12678;51.336;12.406;2024-01-16T06:40:57;6.80;;;2.40;;
24517;SDS011;12678;51.336;12.406;2024-01-16T06:43:23;6.22;;;2.30;;
24517;SDS011;12678;51.336;12.406;2024-01-16T06:45:49;6.43;;;2.03;;
24517;SDS011;12678;51.336;12.406;2024-01-16T06:48:14;7.28;;;2.17;;
24517;SDS011;12678;51.336;12.406;2024-01-16T06:50:40;6.13;;;1.70;;
24517;SDS011;12678;51.336;12.406;2024-01-16T06:53:06;4.25;;;1.83;;
24517;SDS011;12678;51.336;12.406;2024-01-16T06:55:32;15.88;;;2.60;;
24517;SDS011;12678;51.336;12.406;2024-01-16T06:57:57;4.90;;;2.47;;
24517;SDS011;12678;51.336;12.406;2024-01-16T07:00:23;17.42;;;2.75;;
24517;SDS011;12678;51.336;12.406;2024-01-16T07:02:51;4.93;;;2.25;;
24517;SDS011;12678;51.336;12.406;2024-01-16T07:05:17;6.50;;;2.88;;
24517;SDS011;12678;51.336;12.406;2024-01-16T07:07:42;9.82;;;2.83;;
24517;SDS011;12678;51.336;12.406;2024-01-16T07:10:08;7.03;;;2.53;;
24517;SDS011;12678;51.336;12.406;2024-01-16T07:12:38;5.72;;;2.42;;
24517;SDS011;12678;51.336;12.406;2024-01-16T07:15:05;9.13;;;2.75;;
24517;SDS011;12678;51.336;12.406;2024-01-16T07:17:31;4.32;;;2.35;;
24517;SDS011;12678;51.336;12.406;2024-01-16T07:19:56;7.50;;;3.20;;
24517;SDS011;12678;51.336;12.406;2024-01-16T07:22:23;8.20;;;2.75;;
24517;SDS011;12678;51.336;12.406;2024-01-16T07:24:49;7.50;;;3.22;;
24517;SDS011;12678;51.336;12.406;2024-01-16T07:27:14;10.05;;;3.05;;
24517;SDS011;12678;51.336;12.406;2024-01-16T07:29:40;8.52;;;3.42;;
24517;SDS011;12678;51.336;12.406;2024-01-16T07:32:06;7.50;;;3.60;;
24517;SDS011;12678;51.336;12.406;2024-01-16T07:34:32;8.18;;;3.67;;
24517;SDS011;12678;51.336;12.406;2024-01-16T07:36:58;6.80;;;3.35;;
24517;SDS011;12678;51.336;12.406;2024-01-16T07:39:23;9.45;;;3.72;;
24517;SDS011;12678;51.336;12.406;2024-01-16T07:41:49;5.47;;;3.25;;
24517;SDS011;12678;51.336;12.406;2024-01-16T07:44:14;4.78;;;3.10;;
24517;SDS011;12678;51.336;12.406;2024-01-16T07:46:40;6.05;;;2.95;;
24517;SDS011;12678;51.336;12.406;2024-01-16T07:49:05;11.18;;;3.22;;
24517;SDS011;12678;51.336;12.406;2024-01-16T07:51:31;6.15;;;2.92;;
24517;SDS011;12678;51.336;12.406;2024-01-16T07:54:06;3.95;;;2.38;;
24517;SDS011;12678;51.336;12.406;2024-01-16T07:56:34;3.58;;;2.40;;
24517;SDS011;12678;51.336;12.406;2024-01-16T07:59:02;8.38;;;2.38;;
24517;SDS011;12678;51.336;12.406;2024-01-16T08:01:28;5.18;;;2.50;;
24517;SDS011;12678;51.336;12.406;2024-01-16T08:03:56;3.92;;;2.63;;
24517;SDS011;12678;51.336;12.406;2024-01-16T08:06:22;3.83;;;2.15;;
24517;SDS011;12678;51.336;12.406;2024-01-16T08:08:48;10.60;;;3.15;;
24517;SDS011;12678;51.336;12.406;2024-01-16T08:11:15;13.57;;;2.53;;
24517;SDS011;12678;51.336;12.406;2024-01-16T08:13:41;9.25;;;2.72;;
24517;SDS011;12678;51.336;12.406;2024-01-16T08:16:07;4.40;;;2.88;;
24517;SDS011;12678;51.336;12.406;2024-01-16T08:18:33;5.75;;;2.50;;
24517;SDS011;12678;51.336;12.406;2024-01-16T08:20:59;5.22;;;2.45;;
24517;SDS011;12678;51.336;12.406;2024-01-16T08:23:25;9.82;;;2.35;;
24517;SDS011;12678;51.336;12.406;2024-01-16T08:25:50;3.88;;;2.33;;
24517;SDS011;12678;51.336;12.406;2024-01-16T08:28:17;8.07;;;2.63;;
24517;SDS011;12678;51.336;12.406;2024-01-16T08:30:43;10.90;;;2.80;;
24517;SDS011;12678;51.336;12.406;2024-01-16T08:33:08;8.60;;;3.03;;
24517;SDS011;12678;51.336;12.406;2024-01-16T08:35:35;13.38;;;3.42;;
24517;SDS011;12678;51.336;12.406;2024-01-16T08:38:00;12.27;;;3.03;;
24517;SDS011;12678;51.336;12.406;2024-01-16T08:40:26;9.48;;;4.63;;
24517;SDS011;12678;51.336;12.406;2024-01-16T08:42:51;9.07;;;4.45;;
24517;SDS011;12678;51.336;12.406;2024-01-16T08:45:20;9.95;;;3.33;;
24517;SDS011;12678;51.336;12.406;2024-01-16T08:47:46;15.55;;;5.88;;
24517;SDS011;12678;51.336;12.406;2024-01-16T08:50:11;19.27;;;7.70;;
24517;SDS011;12678;51.336;12.406;2024-01-16T08:52:37;10.20;;;4.57;;
24517;SDS011;12678;51.336;12.406;2024-01-16T08:55:02;10.65;;;3.55;;
24517;SDS011;12678;51.336;12.406;2024-01-16T08:57:29;6.63;;;2.85;;
24517;SDS011;12678;51.336;12.406;2024-01-16T08:59:54;12.52;;;3.78;;
24517;SDS011;12678;51.336;12.406;2024-01-16T09:02:20;4.38;;;2.67;;
24517;SDS011;12678;51.336;12.406;2024-01-16T09:04:46;5.05;;;2.67;;
24517;SDS011;12678;51.336;12.406;2024-01-16T09:07:15;6.85;;;2.45;;
24517;SDS011;12678;51.336;12.406;2024-01-16T09:09:41;10.70;;;3.60;;
24517;SDS011;12678;51.336;12.406;2024-01-16T09:12:07;9.38;;;3.40;;
24517;SDS011;12678;51.336;12.406;2024-01-16T09:14:36;11.13;;;4.43;;
24517;SDS011;12678;51.336;12.406;2024-01-16T09:17:02;4.10;;;2.63;;
24517;SDS011;12678;51.336;12.406;2024-01-16T09:19:28;9.95;;;2.80;;
24517;SDS011;12678;51.336;12.406;2024-01-16T09:21:54;13.27;;;3.10;;
24517;SDS011;12678;51.336;12.406;2024-01-16T09:24:20;11.77;;;4.88;;
24517;SDS011;12678;51.336;12.406;2024-01-16T09:26:45;12.07;;;4.07;;
24517;SDS011;12678;51.336;12.406;2024-01-16T09:29:11;29.35;;;8.38;;
24517;SDS011;12678;51.336;12.406;2024-01-16T09:31:37;12.48;;;4.95;;
24517;SDS011;12678;51.336;12.406;2024-01-16T09:34:03;13.45;;;6.68;;
24517;SDS011;12678;51.336;12.406;2024-01-16T09:36:29;10.82;;;4.07;;
24517;SDS011;12678;51.336;12.406;2024-01-16T09:38:55;4.85;;;3.00;;
24517;SDS011;12678;51.336;12.406;2024-01-16T09:41:20;7.47;;;3.00;;
24517;SDS011;12678;51.336;12.406;2024-01-16T09:43:47;5.82;;;2.75;;
24517;SDS011;12678;51.336;12.406;2024-01-16T09:46:13;30.80;;;5.22;;
24517;SDS011;12678;51.336;12.406;2024-01-16T09:48:42;75.85;;;22.67;;
24517;SDS011;12678;51.336;12.406;2024-01-16T09:51:10;49.90;;;17.88;;
24517;SDS011;12678;51.336;12.406;2024-01-16T09:53:39;36.00;;;11.60;;
24517;SDS011;12678;51.336;12.406;2024-01-16T09:56:06;17.83;;;7.90;;
24517;SDS011;12678;51.336;12.406;2024-01-16T09:58:41;21.52;;;6.05;;
24517;SDS011;12678;51.336;12.406;2024-01-16T10:01:08;11.10;;;4.68;;
24517;SDS011;12678;51.336;12.406;2024-01-16T10:03:34;10.32;;;3.92;;
24517;SDS011;12678;51.336;12.406;2024-01-16T10:06:04;6.47;;;2.50;;
24517;SDS011;12678;51.336;12.406;2024-01-16T10:08:31;9.05;;;3.00;;
24517;SDS011;12678;51.336;12.406;2024-01-16T10:10:57;9.55;;;3.28;;
24517;SDS011;12678;51.336;12.406;2024-01-16T10:13:23;8.02;;;3.45;;
24517;SDS011;12678;51.336;12.406;2024-01-16T10:15:52;9.40;;;3.58;;
24517;SDS011;12678;51.336;12.406;2024-01-16T10:18:23;6.10;;;2.75;;
24517;SDS011;12678;51.336;12.406;2024-01-16T10:20:55;7.55;;;3.38;;
24517;SDS011;12678;51.336;12.406;2024-01-16T10:23:22;11.68;;;4.00;;
24517;SDS011;12678;51.336;12.406;2024-01-16T10:26:06;10.30;;;3.10;;
24517;SDS011;12678;51.336;12.406;2024-01-16T10:28:33;19.23;;;3.67;;
24517;SDS011;12678;51.336;12.406;2024-01-16T10:31:17;8.40;;;2.67;;
24517;SDS011;12678;51.336;12.406;2024-01-16T10:33:43;10.52;;;2.70;;
24517;SDS011;12678;51.336;12.406;2024-01-16T10:36:09;9.18;;;2.72;;
24517;SDS011;12678;51.336;12.406;2024-01-16T10:38:36;8.27;;;2.70;;
24517;SDS011;12678;51.336;12.406;2024-01-16T10:41:06;5.38;;;2.83;;
24517;SDS011;12678;51.336;12.406;2024-01-16T10:43:34;8.65;;;2.60;;
24517;SDS011;12678;51.336;12.406;2024-01-16T10:46:34;5.93;;;2.70;;
24517;SDS011;12678;51.336;12.406;2024-01-16T10:48:59;10.10;;;3.08;;
24517;SDS011;12678;51.336;12.406;2024-01-16T10:51:29;6.80;;;2.13;;
24517;SDS011;12678;51.336;12.406;2024-01-16T10:54:04;5.78;;;2.47;;
24517;SDS011;12678;51.336;12.406;2024-01-16T10:56:35;9.45;;;2.88;;
24517;SDS011;12678;51.336;12.406;2024-01-16T11:01:36;13.95;;;2.75;;
24517;SDS011;12678;51.336;12.406;2024-01-16T11:04:03;10.20;;;2.70;;
24517;SDS011;12678;51.336;12.406;2024-01-16T11:06:29;12.52;;;2.40;;
24517;SDS011;12678;51.336;12.406;2024-01-16T11:08:56;3.38;;;2.22;;
24517;SDS011;12678;51.336;12.406;2024-01-16T11:11:23;8.13;;;2.28;;
24517;SDS011;12678;51.336;12.406;2024-01-16T11:13:50;6.35;;;2.88;;
24517;SDS011;12678;51.336;12.406;2024-01-16T11:16:16;10.77;;;3.00;;
24517;SDS011;12678;51.336;12.406;2024-01-16T11:18:43;3.67;;;2.42;;
24517;SDS011;12678;51.336;12.406;2024-01-16T11:21:09;6.88;;;3.30;;
24517;SDS011;12678;51.336;12.406;2024-01-16T11:23:37;5.30;;;2.75;;
24517;SDS011;12678;51.336;12.406;2024-01-16T11:26:24;7.15;;;2.38;;
24517;SDS011;12678;51.336;12.406;2024-01-16T11:28:53;5.72;;;2.67;;
24517;SDS011;12678;51.336;12.406;2024-01-16T11:31:31;6.63;;;2.38;;
24517;SDS011;12678;51.336;12.406;2024-01-16T11:34:00;8.65;;;2.55;;
24517;SDS011;12678;51.336;12.406;2024-01-16T11:39:18;22.63;;;7.50;;
24517;SDS011;12678;51.336;12.406;2024-01-16T11:47:09;9.68;;;2.70;;
24517;SDS011;12678;51.336;12.406;2024-01-16T11:49:47;4.00;;;2.78;;
24517;SDS011;12678;51.336;12.406;2024-01-16T11:52:14;5.07;;;2.78;;
24517;SDS011;12678;51.336;12.406;2024-01-16T11:54:41;8.10;;;3.20;;
24517;SDS011;12678;51.336;12.406;2024-01-16T12:02:05;8.90;;;3.42;;
24517;SDS011;12678;51.336;12.406;2024-01-16T12:04:37;9.15;;;3.35;;
24517;SDS011;12678;51.336;12.406;2024-01-16T12:07:02;4.30;;;2.72;;
24517;SDS011;12678;51.336;12.406;2024-01-16T12:09:28;12.82;;;2.75;;
24517;SDS011;12678;51.336;12.406;2024-01-16T12:11:58;7.03;;;2.40;;
24517;SDS011;12678;51.336;12.406;2024-01-16T12:14:26;10.88;;;3.30;;
24517;SDS011;12678;51.336;12.406;2024-01-16T12:16:52;7.03;;;2.45;;
24517;SDS011;12678;51.336;12.406;2024-01-16T12:19:17;10.45;;;3.25;;
24517;SDS011;12678;51.336;12.406;2024-01-16T12:21:43;7.00;;;3.63;;
24517;SDS011;12678;51.336;12.406;2024-01-16T12:24:10;11.60;;;3.83;;
24517;SDS011;12678;51.336;12.406;2024-01-16T12:26:36;7.30;;;2.90;;
24517;SDS011;12678;51.336;12.406;2024-01-16T12:29:02;8.50;;;2.72;;
24517;SDS011;12678;51.336;12.406;2024-01-16T12:31:28;7.32;;;3.65;;
24517;SDS011;12678;51.336;12.406;2024-01-16T12:34:02;9.48;;;3.38;;
24517;SDS011;12678;51.336;12.406;2024-01-16T12:36:33;7.75;;;3.42;;
24517;SDS011;12678;51.336;12.406;2024-01-16T12:38:58;6.38;;;3.30;;
24517;SDS011;12678;51.336;12.406;2024-01-16T12:41:24;12.48;;;4.20;;
24517;SDS011;12678;51.336;12.406;2024-01-16T12:43:53;8.85;;;3.90;;
24517;SDS011;12678;51.336;12.406;2024-01-16T12:46:18;6.22;;;4.00;;
24517;SDS011;12678;51.336;12.406;2024-01-16T12:48:45;14.45;;;4.50;;
24517;SDS011;12678;51.336;12.406;2024-01-16T12:51:13;12.85;;;4.45;;
24517;SDS011;12678;51.336;12.406;2024-01-16T12:53:47;7.47;;;4.32;;
24517;SDS011;12678;51.336;12.406;2024-01-16T12:56:13;43.67;;;17.30;;
24517;SDS011;12678;51.336;12.406;2024-01-16T12:58:44;45.13;;;16.13;;
24517;SDS011;12678;51.336;12.406;2024-01-16T13:01:26;30.13;;;10.57;;
24517;SDS011;12678;51.336;12.406;2024-01-16T13:03:53;37.22;;;13.77;;
24517;SDS011;12678;51.336;12.406;2024-01-16T13:06:20;16.58;;;7.22;;
24517;SDS011;12678;51.336;12.406;2024-01-16T13:08:50;9.85;;;5.65;;
24517;SDS011;12678;51.336;12.406;2024-01-16T13:11:28;10.60;;;4.60;;
24517;SDS011;12678;51.336;12.406;2024-01-16T13:14:00;12.02;;;4.43;;
24517;SDS011;12678;51.336;12.406;2024-01-16T13:16:28;5.63;;;3.78;;
24517;SDS011;12678;51.336;12.406;2024-01-16T13:19:00;9.98;;;3.83;;
24517;SDS011;12678;51.336;12.406;2024-01-16T13:21:27;9.57;;;4.30;;
24517;SDS011;12678;51.336;12.406;2024-01-16T13:23:52;10.27;;;4.00;;
24517;SDS011;12678;51.336;12.406;2024-01-16T13:26:18;10.02;;;4.50;;
24517;SDS011;12678;51.336;12.406;2024-01-16T13:28:43;8.85;;;4.47;;
24517;SDS011;12678;51.336;12.406;2024-01-16T13:31:12;16.10;;;4.22;;
24517;SDS011;12678;51.336;12.406;2024-01-16T13:33:37;6.30;;;4.25;;
24517;SDS011;12678;51.336;12.406;2024-01-16T13:36:03;6.60;;;3.65;;
24517;SDS011;12678;51.336;12.406;2024-01-16T13:38:29;8.38;;;4.05;;
24517;SDS011;12678;51.336;12.406;2024-01-16T13:40:55;8.77;;;4.07;;
24517;SDS011;12678;51.336;12.406;2024-01-16T13:43:21;20.83;;;5.60;;
24517;SDS011;12678;51.336;12.406;2024-01-16T13:45:46;6.43;;;3.90;;
24517;SDS011;12678;51.336;12.406;2024-01-16T13:48:15;17.92;;;6.72;;
24517;SDS011;12678;51.336;12.406;2024-01-16T13:50:42;9.05;;;4.07;;
24517;SDS011;12678;51.336;12.406;2024-01-16T13:53:07;6.88;;;4.07;;
24517;SDS011;12678;51.336;12.406;2024-01-16T13:55:33;10.00;;;4.00;;
24517;SDS011;12678;51.336;12.406;2024-01-16T13:57:58;8.70;;;4.60;;
24517;SDS011;12678;51.336;12.406;2024-01-16T14:00:24;6.53;;;4.05;;
24517;SDS011;12678;51.336;12.406;2024-01-16T14:02:50;8.02;;;4.50;;
24517;SDS011;12678;51.336;12.406;2024-01-16T14:05:17;6.10;;;3.90;;
24517;SDS011;12678;51.336;12.406;2024-01-16T14:07:44;7.43;;;4.22;;
24517;SDS011;12678;51.336;12.406;2024-01-16T14:10:12;9.95;;;3.78;;
24517;SDS011;12678;51.336;12.406;2024-01-16T14:12:39;7.78;;;4.03;;
24517;SDS011;12678;51.336;12.406;2024-01-16T14:15:07;4.95;;;3.22;;
24517;SDS011;12678;51.336;12.406;2024-01-16T14:17:41;6.15;;;3.63;;
24517;SDS011;12678;51.336;12.406;2024-01-16T14:20:10;14.02;;;4.53;;
24517;SDS011;12678;51.336;12.406;2024-01-16T14:22:36;9.65;;;4.35;;
24517;SDS011;12678;51.336;12.406;2024-01-16T14:25:03;8.35;;;3.75;;
24517;SDS011;12678;51.336;12.406;2024-01-16T14:27:35;9.55;;;4.95;;
24517;SDS011;12678;51.336;12.406;2024-01-16T14:30:02;14.40;;;7.05;;
24517;SDS011;12678;51.336;12.406;2024-01-16T14:32:28;12.32;;;5.60;;
24517;SDS011;12678;51.336;12.406;2024-01-16T14:34:53;10.57;;;5.85;;
24517;SDS011;12678;51.336;12.406;2024-01-16T14:37:19;10.88;;;4.75;;
24517;SDS011;12678;51.336;12.406;2024-01-16T14:39:45;7.25;;;4.28;;
24517;SDS011;12678;51.336;12.406;2024-01-16T14:42:11;12.20;;;4.15;;
24517;SDS011;12678;51.336;12.406;2024-01-16T14:44:36;10.80;;;3.95;;